Startpagina
METAR-TAF:

METAR-TAF

Vliegvelden :

Žilina, Slowakije

breedte: 49-14N, lengte: 018-36-49E, hoogte: 312 m

Actueel weer

Dit bericht is 23 minuten geleden gemaakt, om 14:00 UTC
Wind 3 kt uit het zuidwesten, variërend tussen het zuidzuidwesten en het westen
Temperatuur 27°C
Vochtigheid 45%
Druk 1019 hPa
Zicht 10 km of meer
geen wolken onder 1500 m en geen cumulonimbus

METAR: LZZI 181400Z 22003KT 200V260 CAVOK 27/14 Q1019

Tijdstip: 16:23 (14:23 UTC)

Verwachting

Dit bericht is 3 uur en het 23 minuten geleden gemaakt, om 11:00 UTC
Verwachting geldig van 18 om 12 UTC tot 18 om 21 UTC
Wind 2 kt uit variabele richting
Zicht 10 km of meer
Weinig wolken op 5500 ft
Kans 40% :
Tijdelijke
van 18 om 12 UTC tot 18 om 16 UTC
Weinig wolken op 5000 ft, Cumulonimbus.
Verspreide wolken op 5500 ft
lichte regenbuien

TAF: LZZI 181100Z 1812/1821 VRB02KT 9999 FEW055 PROB40 TEMPO 1812/1816 -SHRA FEW050CB SCT055

Waarnemingen en weersverwachtingen van meer dan 4000 vliegvelden (METAR en TAF).

De beschikbare stations zijn de gele en rode punten op de kaart.

Ga met uw muis naar het station om de naam te zien.

Klik dan om waarnemingen en weersverwachtingen te zien.

kaart wijzigen: klik op de groene knoppen met een zwart kruis om in te zoomen, op de groene knop met een streepje om uit te zoomen of op de groene pijlen voor aangrenzende kaarten.


METAR-TAF: